createdAt,value
2023-02-16T00:00:03.444Z,96268.00
2023-02-16T00:00:13.457Z,96270.00
2023-02-16T00:00:23.473Z,96264.00
2023-02-16T00:00:33.509Z,96266.00
2023-02-16T00:00:43.488Z,96266.00
2023-02-16T00:00:53.496Z,96264.00
2023-02-16T00:01:03.868Z,96266.00
2023-02-16T00:01:13.519Z,96264.00
2023-02-16T00:01:23.514Z,96264.00
2023-02-16T00:01:33.518Z,96268.00
2023-02-16T00:01:43.520Z,96268.00
2023-02-16T00:01:53.517Z,96266.00
2023-02-16T00:02:03.544Z,96268.00
2023-02-16T00:02:13.536Z,96268.00
2023-02-16T00:02:23.548Z,96268.00
2023-02-16T00:02:33.567Z,96266.00
2023-02-16T00:02:43.638Z,96268.00
2023-02-16T00:02:53.525Z,96270.00
2023-02-16T00:03:03.532Z,96268.00
2023-02-16T00:03:13.616Z,96268.00
2023-02-16T00:03:23.540Z,96270.00
2023-02-16T00:03:33.544Z,96270.00
2023-02-16T00:03:43.547Z,96268.00
2023-02-16T00:03:53.529Z,96272.00
2023-02-16T00:04:03.496Z,96270.00
2023-02-16T00:04:13.509Z,96270.00
2023-02-16T00:04:23.513Z,96270.00
2023-02-16T00:04:33.526Z,96270.00
2023-02-16T00:04:43.521Z,96270.00
2023-02-16T00:04:53.486Z,96270.00
2023-02-16T00:05:03.552Z,96272.00
2023-02-16T00:05:13.511Z,96270.00
2023-02-16T00:05:23.531Z,96268.00
2023-02-16T00:05:33.538Z,96272.00
2023-02-16T00:05:43.534Z,96268.00
2023-02-16T00:05:53.538Z,96274.00
2023-02-16T00:06:03.598Z,96270.00
2023-02-16T00:06:13.588Z,96272.00
2023-02-16T00:06:23.596Z,96268.00
2023-02-16T00:06:33.589Z,96270.00
2023-02-16T00:06:43.608Z,96270.00
2023-02-16T00:06:53.593Z,96270.00
2023-02-16T00:07:03.614Z,96270.00
2023-02-16T00:07:13.609Z,96274.00
2023-02-16T00:07:23.625Z,96272.00
2023-02-16T00:07:33.661Z,96272.00
2023-02-16T00:07:43.638Z,96274.00
2023-02-16T00:07:53.665Z,96270.00
2023-02-16T00:08:03.694Z,96272.00
2023-02-16T00:08:13.674Z,96272.00
2023-02-16T00:08:23.677Z,96272.00
2023-02-16T00:08:33.698Z,96270.00
2023-02-16T00:08:43.715Z,96270.00
2023-02-16T00:08:53.697Z,96272.00
2023-02-16T00:09:03.722Z,96272.00
2023-02-16T00:09:13.713Z,96272.00
2023-02-16T00:09:23.727Z,96274.00
2023-02-16T00:09:33.762Z,96274.00
2023-02-16T00:09:43.750Z,96274.00
2023-02-16T00:09:53.754Z,96276.00
2023-02-16T00:10:03.854Z,96274.00
2023-02-16T00:10:13.782Z,96274.00
2023-02-16T00:10:23.790Z,96276.00
2023-02-16T00:10:33.798Z,96276.00
2023-02-16T00:10:43.806Z,96276.00
2023-02-16T00:10:53.797Z,96274.00
2023-02-16T00:11:04.096Z,96274.00
2023-02-16T00:11:13.806Z,96274.00
2023-02-16T00:11:23.810Z,96274.00
2023-02-16T00:11:33.816Z,96276.00
2023-02-16T00:11:43.815Z,96274.00
2023-02-16T00:11:53.824Z,96274.00
2023-02-16T00:12:03.833Z,96278.00
2023-02-16T00:12:13.828Z,96278.00
2023-02-16T00:12:23.818Z,96276.00
2023-02-16T00:12:33.823Z,96278.00
2023-02-16T00:12:43.818Z,96278.00
2023-02-16T00:12:53.817Z,96278.00
2023-02-16T00:13:03.823Z,96278.00
2023-02-16T00:13:13.810Z,96276.00
2023-02-16T00:13:23.818Z,96276.00
2023-02-16T00:13:33.813Z,96274.00
2023-02-16T00:13:43.811Z,96276.00
2023-02-16T00:13:53.800Z,96276.00
2023-02-16T00:14:03.814Z,96276.00
2023-02-16T00:14:13.810Z,96276.00
2023-02-16T00:14:23.813Z,96274.00
2023-02-16T00:14:33.810Z,96276.00
2023-02-16T00:14:43.811Z,96276.00
2023-02-16T00:14:53.788Z,96276.00
2023-02-16T00:15:03.805Z,96278.00
2023-02-16T00:15:13.897Z,96278.00
2023-02-16T00:15:23.808Z,96274.00
2023-02-16T00:15:33.858Z,96276.00
2023-02-16T00:15:43.837Z,96276.00
2023-02-16T00:15:53.820Z,96276.00
2023-02-16T00:16:03.816Z,96278.00
2023-02-16T00:16:13.833Z,96278.00
2023-02-16T00:16:23.925Z,96276.00
2023-02-16T00:16:33.789Z,96278.00
2023-02-16T00:16:43.784Z,96276.00
2023-02-16T00:16:53.822Z,96276.00
2023-02-16T00:17:03.801Z,96278.00
2023-02-16T00:17:13.787Z,96278.00
2023-02-16T00:17:23.795Z,96276.00
2023-02-16T00:17:33.832Z,96276.00
2023-02-16T00:17:43.824Z,96276.00
2023-02-16T00:17:53.824Z,96276.00
2023-02-16T00:18:03.837Z,96278.00
2023-02-16T00:18:13.855Z,96278.00
2023-02-16T00:18:23.835Z,96278.00
2023-02-16T00:18:33.896Z,96278.00
2023-02-16T00:18:43.881Z,96278.00
2023-02-16T00:18:53.886Z,96278.00
2023-02-16T00:19:03.899Z,96278.00
2023-02-16T00:19:13.904Z,96276.00
2023-02-16T00:19:23.908Z,96276.00
2023-02-16T00:19:33.928Z,96276.00
2023-02-16T00:19:43.898Z,96278.00
2023-02-16T00:19:53.923Z,96278.00
2023-02-16T00:20:03.970Z,96278.00
2023-02-16T00:20:14.040Z,96278.00
2023-02-16T00:20:23.944Z,96274.00
2023-02-16T00:20:33.986Z,96276.00
2023-02-16T00:20:43.977Z,96276.00
2023-02-16T00:20:53.979Z,96276.00
2023-02-16T00:21:04.219Z,96276.00
2023-02-16T00:21:14.006Z,96274.00
2023-02-16T00:21:23.989Z,96276.00
2023-02-16T00:21:34.008Z,96274.00
2023-02-16T00:21:43.994Z,96274.00
2023-02-16T00:21:54.001Z,96274.00
2023-02-16T00:22:03.991Z,96270.00
2023-02-16T00:22:14.022Z,96272.00
2023-02-16T00:22:23.988Z,96274.00
2023-02-16T00:22:34.011Z,96272.00
2023-02-16T00:22:43.986Z,96272.00
2023-02-16T00:22:53.995Z,96272.00
2023-02-16T00:23:03.993Z,96274.00
2023-02-16T00:23:14.009Z,96272.00
2023-02-16T00:23:23.998Z,96272.00
2023-02-16T00:23:34.006Z,96272.00
2023-02-16T00:23:43.995Z,96270.00
2023-02-16T00:23:53.994Z,96270.00
2023-02-16T00:24:04.020Z,96270.00
2023-02-16T00:24:13.989Z,96270.00
2023-02-16T00:24:23.982Z,96270.00
2023-02-16T00:24:33.989Z,96268.00
2023-02-16T00:24:43.973Z,96272.00
2023-02-16T00:24:53.980Z,96270.00
2023-02-16T00:25:03.999Z,96270.00
2023-02-16T00:25:13.980Z,96268.00
2023-02-16T00:25:24.105Z,96266.00
2023-02-16T00:25:33.986Z,96270.00
2023-02-16T00:25:43.994Z,96270.00
2023-02-16T00:25:53.974Z,96270.00
2023-02-16T00:26:03.985Z,96268.00
2023-02-16T00:26:13.988Z,96268.00
2023-02-16T00:26:23.971Z,96268.00
2023-02-16T00:26:33.982Z,96268.00
2023-02-16T00:26:43.974Z,96264.00
2023-02-16T00:26:53.983Z,96268.00
2023-02-16T00:27:03.993Z,96266.00
2023-02-16T00:27:14.025Z,96268.00
2023-02-16T00:27:23.997Z,96266.00
2023-02-16T00:27:34.009Z,96268.00
2023-02-16T00:27:44.016Z,96268.00
2023-02-16T00:27:54.031Z,96264.00
2023-02-16T00:28:04.058Z,96264.00
2023-02-16T00:28:14.038Z,96266.00
2023-02-16T00:28:24.037Z,96266.00
2023-02-16T00:28:34.087Z,96266.00
2023-02-16T00:28:44.087Z,96264.00
2023-02-16T00:28:54.106Z,96264.00
2023-02-16T00:29:04.108Z,96264.00
2023-02-16T00:29:14.095Z,96268.00
2023-02-16T00:29:24.096Z,96262.00
2023-02-16T00:29:34.120Z,96266.00
2023-02-16T00:29:45.857Z,96262.00
2023-02-16T00:29:54.164Z,96264.00
2023-02-16T00:30:04.194Z,96262.00
2023-02-16T00:30:14.146Z,96260.00
2023-02-16T00:30:24.195Z,96262.00
2023-02-16T00:30:34.274Z,96262.00
2023-02-16T00:30:44.166Z,96264.00
2023-02-16T00:30:54.166Z,96262.00
2023-02-16T00:31:04.442Z,96264.00
2023-02-16T00:31:14.354Z,96262.00
2023-02-16T00:31:24.485Z,96262.00
2023-02-16T00:31:34.410Z,96262.00
2023-02-16T00:31:44.374Z,96260.00
2023-02-16T00:31:54.493Z,96260.00
2023-02-16T00:32:04.574Z,96260.00
2023-02-16T00:32:14.469Z,96260.00
2023-02-16T00:32:24.404Z,96260.00
2023-02-16T00:32:34.332Z,96260.00
2023-02-16T00:32:44.337Z,96262.00
2023-02-16T00:32:54.318Z,96262.00
2023-02-16T00:33:04.336Z,96256.00
2023-02-16T00:33:14.357Z,96258.00
2023-02-16T00:33:24.375Z,96256.00
2023-02-16T00:33:34.358Z,96258.00
2023-02-16T00:33:44.386Z,96256.00
2023-02-16T00:33:54.396Z,96258.00
2023-02-16T00:34:04.383Z,96260.00
2023-02-16T00:34:14.406Z,96256.00
2023-02-16T00:34:24.395Z,96258.00
2023-02-16T00:34:34.399Z,96254.00
2023-02-16T00:34:44.438Z,96256.00
2023-02-16T00:34:54.425Z,96256.00
2023-02-16T00:35:04.454Z,96256.00
2023-02-16T00:35:14.461Z,96256.00
2023-02-16T00:35:24.470Z,96254.00
2023-02-16T00:35:34.509Z,96256.00
2023-02-16T00:35:44.489Z,96254.00
2023-02-16T00:35:54.496Z,96252.00
2023-02-16T00:36:04.485Z,96254.00
2023-02-16T00:36:14.504Z,96252.00
2023-02-16T00:36:24.506Z,96252.00
2023-02-16T00:36:34.498Z,96254.00
2023-02-16T00:36:44.521Z,96254.00
2023-02-16T00:36:54.543Z,96250.00
2023-02-16T00:37:04.509Z,96250.00
2023-02-16T00:37:14.565Z,96254.00
2023-02-16T00:37:24.565Z,96254.00
2023-02-16T00:37:34.567Z,96252.00
2023-02-16T00:37:44.592Z,96252.00
2023-02-16T00:37:54.582Z,96254.00
2023-02-16T00:38:04.581Z,96250.00
2023-02-16T00:38:14.640Z,96248.00
2023-02-16T00:38:24.605Z,96248.00
2023-02-16T00:38:34.585Z,96252.00
2023-02-16T00:38:44.646Z,96248.00
2023-02-16T00:38:54.622Z,96250.00
2023-02-16T00:39:04.633Z,96250.00
2023-02-16T00:39:14.656Z,96250.00
2023-02-16T00:39:24.667Z,96250.00
2023-02-16T00:39:34.659Z,96252.00
2023-02-16T00:39:44.690Z,96246.00
2023-02-16T00:39:54.690Z,96252.00
2023-02-16T00:40:04.691Z,96252.00
2023-02-16T00:40:14.706Z,96252.00
2023-02-16T00:40:24.690Z,96252.00
2023-02-16T00:40:34.744Z,96248.00
2023-02-16T00:40:44.760Z,96248.00
2023-02-16T00:40:54.734Z,96250.00
2023-02-16T00:41:04.992Z,96248.00
2023-02-16T00:41:14.822Z,96252.00
2023-02-16T00:41:24.805Z,96248.00
2023-02-16T00:41:34.819Z,96250.00
2023-02-16T00:41:44.804Z,96252.00
2023-02-16T00:41:54.804Z,96250.00
2023-02-16T00:42:04.844Z,96250.00
2023-02-16T00:42:14.816Z,96248.00
2023-02-16T00:42:24.801Z,96248.00
2023-02-16T00:42:34.799Z,96250.00
2023-02-16T00:42:44.795Z,96254.00
2023-02-16T00:42:57.201Z,96250.00
2023-02-16T00:43:04.812Z,96250.00
2023-02-16T00:43:14.805Z,96254.00
2023-02-16T00:43:24.799Z,96248.00
2023-02-16T00:43:34.801Z,96250.00
2023-02-16T00:43:44.801Z,96252.00
2023-02-16T00:43:54.799Z,96252.00
2023-02-16T00:44:04.798Z,96256.00
2023-02-16T00:44:14.799Z,96254.00
2023-02-16T00:44:24.800Z,96252.00
2023-02-16T00:44:34.809Z,96254.00
2023-02-16T00:44:44.808Z,96254.00
2023-02-16T00:44:54.809Z,96250.00
2023-02-16T00:45:04.799Z,96256.00
2023-02-16T00:45:14.808Z,96252.00
2023-02-16T00:45:24.813Z,96252.00
2023-02-16T00:45:34.862Z,96254.00
2023-02-16T00:45:44.795Z,96256.00
2023-02-16T00:45:54.856Z,96254.00
2023-02-16T00:46:04.812Z,96254.00
2023-02-16T00:46:14.825Z,96254.00
2023-02-16T00:46:24.828Z,96256.00
2023-02-16T00:46:34.826Z,96256.00
2023-02-16T00:46:44.768Z,96256.00
2023-02-16T00:46:54.770Z,96256.00
2023-02-16T00:47:04.771Z,96254.00
2023-02-16T00:47:14.773Z,96254.00
2023-02-16T00:47:24.778Z,96254.00
2023-02-16T00:47:34.770Z,96254.00
2023-02-16T00:47:44.772Z,96254.00
2023-02-16T00:47:54.774Z,96256.00
2023-02-16T00:48:04.797Z,96256.00
2023-02-16T00:48:14.776Z,96256.00
2023-02-16T00:48:24.802Z,96252.00
2023-02-16T00:48:34.774Z,96254.00
2023-02-16T00:48:45.333Z,96252.00
2023-02-16T00:48:54.771Z,96254.00
2023-02-16T00:49:04.788Z,96254.00
2023-02-16T00:49:14.791Z,96252.00
2023-02-16T00:49:24.774Z,96254.00
2023-02-16T00:49:34.800Z,96254.00
2023-02-16T00:49:44.784Z,96252.00
2023-02-16T00:49:54.788Z,96254.00
2023-02-16T00:50:04.784Z,96252.00
2023-02-16T00:50:14.776Z,96252.00
2023-02-16T00:50:24.795Z,96256.00
2023-02-16T00:50:34.775Z,96256.00
2023-02-16T00:50:44.855Z,96254.00
2023-02-16T00:50:54.781Z,96252.00
2023-02-16T00:51:16.821Z,96256.00
2023-02-16T00:51:25.513Z,96250.00
2023-02-16T00:51:26.403Z,96254.00
2023-02-16T00:51:34.780Z,96250.00
2023-02-16T00:51:44.789Z,96252.00
2023-02-16T00:51:54.766Z,96254.00
2023-02-16T00:52:04.759Z,96254.00
2023-02-16T00:52:14.771Z,96254.00
2023-02-16T00:52:24.760Z,96254.00
2023-02-16T00:52:34.761Z,96254.00
2023-02-16T00:52:44.761Z,96254.00
2023-02-16T00:52:54.792Z,96254.00
2023-02-16T00:53:04.777Z,96254.00
2023-02-16T00:53:14.757Z,96254.00
2023-02-16T00:53:24.766Z,96254.00
2023-02-16T00:53:34.781Z,96254.00
2023-02-16T00:53:44.765Z,96254.00
2023-02-16T00:53:54.766Z,96252.00
2023-02-16T00:54:04.765Z,96252.00
2023-02-16T00:54:14.811Z,96252.00
2023-02-16T00:54:24.763Z,96254.00
2023-02-16T00:54:34.761Z,96252.00
2023-02-16T00:54:44.749Z,96252.00
2023-02-16T00:54:54.754Z,96252.00
2023-02-16T00:55:04.776Z,96252.00
2023-02-16T00:55:14.762Z,96250.00
2023-02-16T00:55:24.758Z,96252.00
2023-02-16T00:55:34.773Z,96250.00
2023-02-16T00:55:44.771Z,96256.00
2023-02-16T00:55:54.810Z,96256.00
2023-02-16T00:56:04.776Z,96254.00
2023-02-16T00:56:14.751Z,96252.00
2023-02-16T00:56:24.773Z,96252.00
2023-02-16T00:56:34.766Z,96254.00
2023-02-16T00:56:44.757Z,96252.00
2023-02-16T00:56:54.764Z,96254.00
2023-02-16T00:57:04.764Z,96252.00
2023-02-16T00:57:14.767Z,96252.00
2023-02-16T00:57:24.751Z,96252.00
2023-02-16T00:57:34.756Z,96252.00
2023-02-16T00:57:44.752Z,96250.00
2023-02-16T00:57:54.782Z,96252.00
2023-02-16T00:58:04.750Z,96252.00
2023-02-16T00:58:14.725Z,96250.00
2023-02-16T00:58:24.755Z,96250.00
2023-02-16T00:58:34.741Z,96250.00
2023-02-16T00:58:44.779Z,96254.00
2023-02-16T00:58:54.751Z,96250.00
2023-02-16T00:59:04.751Z,96250.00
2023-02-16T00:59:14.735Z,96250.00
2023-02-16T00:59:24.739Z,96248.00
2023-02-16T00:59:34.739Z,96250.00
2023-02-16T00:59:44.733Z,96252.00
2023-02-16T00:59:54.742Z,96254.00
2023-02-16T01:00:04.734Z,96252.00
2023-02-16T01:00:14.747Z,96248.00
2023-02-16T01:00:24.747Z,96248.00
2023-02-16T01:00:34.738Z,96248.00
2023-02-16T01:00:44.738Z,96250.00
2023-02-16T01:00:54.761Z,96246.00
2023-02-16T01:01:05.103Z,96248.00
2023-02-16T01:01:14.792Z,96248.00
2023-02-16T01:01:24.784Z,96248.00
2023-02-16T01:01:34.757Z,96248.00
2023-02-16T01:01:44.793Z,96246.00
2023-02-16T01:01:54.769Z,96248.00
2023-02-16T01:02:04.765Z,96246.00
2023-02-16T01:02:14.772Z,96248.00
2023-02-16T01:02:24.726Z,96246.00
2023-02-16T01:02:34.738Z,96245.00
2023-02-16T01:02:44.744Z,96246.00
2023-02-16T01:02:54.757Z,96246.00
2023-02-16T01:03:04.717Z,96246.00
2023-02-16T01:03:14.726Z,96248.00
2023-02-16T01:03:24.740Z,96248.00
2023-02-16T01:03:34.753Z,96248.00
2023-02-16T01:03:44.736Z,96246.00
2023-02-16T01:03:54.727Z,96245.00
2023-02-16T01:04:04.745Z,96246.00
2023-02-16T01:04:14.709Z,96246.00
2023-02-16T01:04:24.767Z,96246.00
2023-02-16T01:04:34.792Z,96245.00
2023-02-16T01:04:44.778Z,96245.00
2023-02-16T01:04:54.871Z,96245.00
2023-02-16T01:05:04.722Z,96245.00
2023-02-16T01:05:14.730Z,96245.00
2023-02-16T01:05:24.728Z,96245.00
2023-02-16T01:05:34.717Z,96243.00
2023-02-16T01:05:44.733Z,96243.00
2023-02-16T01:05:54.723Z,96245.00
2023-02-16T01:06:04.736Z,96245.00
2023-02-16T01:06:14.777Z,96243.00
2023-02-16T01:06:24.759Z,96245.00
2023-02-16T01:06:34.766Z,96245.00
2023-02-16T01:06:44.765Z,96243.00
2023-02-16T01:06:54.786Z,96243.00
2023-02-16T01:07:04.778Z,96243.00
2023-02-16T01:07:14.775Z,96245.00
2023-02-16T01:07:24.796Z,96245.00
2023-02-16T01:07:34.815Z,96245.00
2023-02-16T01:07:44.800Z,96245.00
2023-02-16T01:07:54.816Z,96245.00
2023-02-16T01:08:04.819Z,96245.00
2023-02-16T01:08:14.803Z,96245.00
2023-02-16T01:08:24.872Z,96245.00
2023-02-16T01:08:34.859Z,96243.00
2023-02-16T01:08:44.868Z,96243.00
2023-02-16T01:08:54.877Z,96245.00
2023-02-16T01:09:04.887Z,96243.00
2023-02-16T01:09:14.877Z,96246.00
2023-02-16T01:09:24.907Z,96241.00
2023-02-16T01:09:34.894Z,96241.00
2023-02-16T01:09:44.900Z,96245.00
2023-02-16T01:09:54.935Z,96243.00
2023-02-16T01:10:04.957Z,96243.00
2023-02-16T01:10:14.933Z,96241.00
2023-02-16T01:10:24.956Z,96243.00
2023-02-16T01:10:34.974Z,96245.00
2023-02-16T01:10:44.949Z,96245.00
2023-02-16T01:10:54.964Z,96243.00
2023-02-16T01:11:05.297Z,96245.00
2023-02-16T01:11:15.036Z,96243.00
2023-02-16T01:11:24.978Z,96245.00
2023-02-16T01:11:34.992Z,96243.00
2023-02-16T01:11:44.967Z,96245.00
2023-02-16T01:11:54.976Z,96243.00
2023-02-16T01:12:04.973Z,96246.00
2023-02-16T01:12:14.973Z,96243.00
2023-02-16T01:12:24.971Z,96243.00
2023-02-16T01:12:34.973Z,96246.00
2023-02-16T01:12:44.971Z,96246.00
2023-02-16T01:12:54.968Z,96245.00
2023-02-16T01:13:04.993Z,96245.00
2023-02-16T01:13:14.967Z,96241.00
2023-02-16T01:13:24.966Z,96245.00
2023-02-16T01:13:34.985Z,96243.00
2023-02-16T01:13:44.983Z,96245.00
2023-02-16T01:13:54.993Z,96243.00
2023-02-16T01:14:04.974Z,96245.00
2023-02-16T01:14:14.974Z,96241.00
2023-02-16T01:14:24.970Z,96245.00
2023-02-16T01:14:34.970Z,96243.00
2023-02-16T01:14:44.960Z,96245.00
2023-02-16T01:14:54.991Z,96241.00
2023-02-16T01:15:04.963Z,96243.00
2023-02-16T01:15:14.965Z,96239.00
2023-02-16T01:15:24.967Z,96243.00
2023-02-16T01:15:35.024Z,96241.00
2023-02-16T01:15:44.969Z,96243.00
2023-02-16T01:15:55.015Z,96243.00
2023-02-16T01:16:05.081Z,96243.00
2023-02-16T01:16:15.005Z,96241.00
2023-02-16T01:16:25.049Z,96237.00
2023-02-16T01:16:34.978Z,96239.00
2023-02-16T01:16:44.979Z,96243.00
2023-02-16T01:16:55.013Z,96239.00
2023-02-16T01:17:05.024Z,96237.00
2023-02-16T01:17:15.010Z,96241.00
2023-02-16T01:17:25.052Z,96239.00
2023-02-16T01:17:35.026Z,96239.00
2023-02-16T01:17:45.038Z,96239.00
2023-02-16T01:17:55.065Z,96239.00
2023-02-16T01:18:05.058Z,96241.00
2023-02-16T01:18:15.047Z,96239.00
2023-02-16T01:18:25.096Z,96239.00
2023-02-16T01:18:35.083Z,96237.00
2023-02-16T01:18:45.077Z,96237.00
2023-02-16T01:18:55.111Z,96237.00
2023-02-16T01:19:05.138Z,96239.00
2023-02-16T01:19:15.118Z,96239.00
2023-02-16T01:19:25.132Z,96237.00
2023-02-16T01:19:35.140Z,96239.00
2023-02-16T01:19:45.147Z,96237.00
2023-02-16T01:19:55.143Z,96237.00
2023-02-16T01:20:05.147Z,96237.00
2023-02-16T01:20:15.154Z,96239.00
2023-02-16T01:20:25.183Z,96237.00
2023-02-16T01:20:35.219Z,96235.00
2023-02-16T01:20:45.177Z,96235.00
2023-02-16T01:20:55.221Z,96235.00
2023-02-16T01:21:05.436Z,96237.00
2023-02-16T01:21:15.210Z,96233.00
2023-02-16T01:21:25.255Z,96237.00
2023-02-16T01:21:35.229Z,96237.00
2023-02-16T01:21:45.227Z,96235.00
2023-02-16T01:21:55.224Z,96233.00
2023-02-16T01:22:05.228Z,96235.00
2023-02-16T01:22:15.221Z,96233.00
2023-02-16T01:22:25.220Z,96233.00
2023-02-16T01:22:35.220Z,96233.00
2023-02-16T01:22:45.215Z,96233.00
2023-02-16T01:22:55.209Z,96235.00
2023-02-16T01:23:05.241Z,96235.00
2023-02-16T01:23:15.227Z,96233.00
2023-02-16T01:23:25.224Z,96233.00
2023-02-16T01:23:35.204Z,96233.00
2023-02-16T01:23:45.206Z,96235.00
2023-02-16T01:23:55.209Z,96233.00
2023-02-16T01:24:05.205Z,96231.00
2023-02-16T01:24:15.238Z,96233.00
2023-02-16T01:24:25.205Z,96233.00
2023-02-16T01:24:35.193Z,96231.00
2023-02-16T01:24:45.197Z,96233.00
2023-02-16T01:24:55.199Z,96231.00
2023-02-16T01:25:05.201Z,96231.00
2023-02-16T01:25:15.223Z,96233.00
2023-02-16T01:25:25.204Z,96233.00
2023-02-16T01:25:35.205Z,96233.00
2023-02-16T01:25:45.198Z,96231.00
2023-02-16T01:25:55.202Z,96233.00
2023-02-16T01:26:05.220Z,96231.00
2023-02-16T01:26:15.216Z,96233.00
2023-02-16T01:26:25.189Z,96233.00
2023-02-16T01:26:35.241Z,96233.00
2023-02-16T01:26:45.204Z,96235.00
2023-02-16T01:26:55.235Z,96229.00
2023-02-16T01:27:05.228Z,96233.00
2023-02-16T01:27:15.227Z,96229.00
2023-02-16T01:27:25.255Z,96231.00
2023-02-16T01:27:35.257Z,96231.00
2023-02-16T01:27:45.265Z,96231.00
2023-02-16T01:27:55.291Z,96233.00
2023-02-16T01:28:05.264Z,96233.00
2023-02-16T01:28:15.267Z,96229.00
2023-02-16T01:28:25.317Z,96229.00
2023-02-16T01:28:35.303Z,96227.00
2023-02-16T01:28:45.302Z,96231.00
2023-02-16T01:28:55.301Z,96231.00
2023-02-16T01:29:05.343Z,96229.00
2023-02-16T01:29:15.346Z,96229.00
2023-02-16T01:29:25.358Z,96229.00
2023-02-16T01:29:35.370Z,96227.00
2023-02-16T01:29:45.372Z,96227.00
2023-02-16T01:29:55.386Z,96229.00
2023-02-16T01:30:05.417Z,96229.00
2023-02-16T01:30:15.415Z,96227.00
2023-02-16T01:30:25.455Z,96229.00
2023-02-16T01:30:35.423Z,96227.00
2023-02-16T01:30:45.400Z,96227.00
2023-02-16T01:30:55.563Z,96231.00
2023-02-16T01:31:05.769Z,96231.00
2023-02-16T01:31:15.468Z,96229.00
2023-02-16T01:31:25.525Z,96229.00
2023-02-16T01:31:35.569Z,96231.00
2023-02-16T01:31:45.526Z,96229.00
2023-02-16T01:31:55.652Z,96229.00
2023-02-16T01:32:05.776Z,96231.00
2023-02-16T01:32:15.580Z,96229.00
2023-02-16T01:32:25.570Z,96229.00
2023-02-16T01:32:35.435Z,96231.00
2023-02-16T01:32:45.416Z,96227.00
2023-02-16T01:32:55.412Z,96229.00
2023-02-16T01:33:05.412Z,96229.00
2023-02-16T01:33:15.413Z,96227.00
2023-02-16T01:33:25.411Z,96227.00
2023-02-16T01:33:35.404Z,96229.00
2023-02-16T01:33:45.427Z,96227.00
2023-02-16T01:33:55.422Z,96229.00
2023-02-16T01:34:05.425Z,96227.00
2023-02-16T01:34:15.441Z,96229.00
2023-02-16T01:34:25.451Z,96229.00
2023-02-16T01:34:35.434Z,96227.00
2023-02-16T01:34:45.424Z,96227.00
2023-02-16T01:34:55.453Z,96229.00
2023-02-16T01:35:05.439Z,96229.00
2023-02-16T01:35:15.459Z,96227.00
2023-02-16T01:35:25.468Z,96229.00
2023-02-16T01:35:35.477Z,96229.00
2023-02-16T01:35:45.476Z,96227.00
2023-02-16T01:35:55.511Z,96229.00
2023-02-16T01:36:05.515Z,96229.00
2023-02-16T01:36:15.502Z,96229.00
2023-02-16T01:36:25.533Z,96227.00
2023-02-16T01:36:35.600Z,96227.00
2023-02-16T01:36:45.553Z,96227.00
2023-02-16T01:36:55.555Z,96227.00
2023-02-16T01:37:05.552Z,96229.00
2023-02-16T01:37:15.563Z,96227.00
2023-02-16T01:37:25.571Z,96227.00
2023-02-16T01:37:35.572Z,96227.00
2023-02-16T01:37:45.565Z,96225.00
2023-02-16T01:37:55.614Z,96229.00
2023-02-16T01:38:05.608Z,96225.00
2023-02-16T01:38:18.219Z,96225.00
2023-02-16T01:38:25.591Z,96223.00
2023-02-16T01:38:35.612Z,96225.00
2023-02-16T01:38:45.589Z,96225.00
2023-02-16T01:38:55.608Z,96225.00
2023-02-16T01:39:05.611Z,96225.00
2023-02-16T01:39:15.597Z,96227.00
2023-02-16T01:39:25.576Z,96227.00
2023-02-16T01:39:35.593Z,96225.00
2023-02-16T01:39:45.591Z,96225.00
2023-02-16T01:39:55.586Z,96225.00
2023-02-16T01:40:05.616Z,96221.00
2023-02-16T01:40:15.596Z,96225.00
2023-02-16T01:40:25.597Z,96223.00
2023-02-16T01:40:35.603Z,96223.00
2023-02-16T01:40:45.598Z,96223.00
2023-02-16T01:40:55.594Z,96225.00
2023-02-16T01:41:05.802Z,96223.00
2023-02-16T01:41:15.601Z,96223.00
2023-02-16T01:41:25.615Z,96223.00
2023-02-16T01:41:35.663Z,96223.00
2023-02-16T01:41:45.592Z,96225.00
2023-02-16T01:41:55.594Z,96223.00
2023-02-16T01:42:05.605Z,96223.00
2023-02-16T01:42:15.616Z,96223.00
2023-02-16T01:42:25.588Z,96225.00
2023-02-16T01:42:35.596Z,96223.00
2023-02-16T01:42:45.604Z,96223.00
2023-02-16T01:42:55.585Z,96223.00
2023-02-16T01:43:05.573Z,96225.00
2023-02-16T01:43:15.586Z,96225.00
2023-02-16T01:43:25.588Z,96221.00
2023-02-16T01:43:35.577Z,96223.00
2023-02-16T01:43:45.569Z,96227.00
2023-02-16T01:43:55.587Z,96223.00
2023-02-16T01:44:05.574Z,96225.00
2023-02-16T01:44:15.572Z,96225.00
2023-02-16T01:44:25.579Z,96225.00
2023-02-16T01:44:35.573Z,96223.00
2023-02-16T01:44:45.575Z,96223.00
2023-02-16T01:44:55.605Z,96223.00
2023-02-16T01:45:25.951Z,96223.00
2023-02-16T01:45:35.964Z,96221.00
2023-02-16T01:45:45.955Z,96225.00
2023-02-16T01:45:55.968Z,96223.00
2023-02-16T01:46:06.024Z,96225.00
2023-02-16T01:46:15.995Z,96227.00
2023-02-16T01:46:26.042Z,96227.00
2023-02-16T01:46:35.982Z,96225.00
2023-02-16T01:46:46.007Z,96225.00
2023-02-16T01:46:55.957Z,96223.00
2023-02-16T01:47:05.950Z,96225.00
2023-02-16T01:47:15.961Z,96225.00
2023-02-16T01:47:25.968Z,96223.00
2023-02-16T01:47:35.978Z,96223.00
2023-02-16T01:47:45.942Z,96225.00
2023-02-16T01:47:55.960Z,96223.00
2023-02-16T01:48:05.944Z,96225.00
2023-02-16T01:48:15.955Z,96223.00
2023-02-16T01:48:25.952Z,96223.00
2023-02-16T01:48:35.966Z,96223.00
2023-02-16T01:48:45.972Z,96223.00
2023-02-16T01:48:55.964Z,96223.00
2023-02-16T01:49:05.955Z,96221.00
2023-02-16T01:49:15.998Z,96221.00
2023-02-16T01:49:25.966Z,96219.00
2023-02-16T01:49:35.944Z,96221.00
2023-02-16T01:49:45.953Z,96221.00
2023-02-16T01:49:55.954Z,96221.00
2023-02-16T01:50:05.939Z,96219.00
2023-02-16T01:50:15.958Z,96219.00
2023-02-16T01:50:25.929Z,96221.00
2023-02-16T01:50:36.005Z,96219.00
2023-02-16T01:50:45.952Z,96221.00
2023-02-16T01:50:55.940Z,96217.00
2023-02-16T01:51:05.946Z,96219.00
2023-02-16T01:51:15.931Z,96219.00
2023-02-16T01:51:25.960Z,96217.00
2023-02-16T01:51:35.937Z,96215.00
2023-02-16T01:51:45.932Z,96219.00
2023-02-16T01:51:55.946Z,96217.00
2023-02-16T01:52:05.938Z,96215.00
2023-02-16T01:52:15.958Z,96217.00
2023-02-16T01:52:25.957Z,96215.00
2023-02-16T01:52:35.945Z,96217.00
2023-02-16T01:52:45.930Z,96217.00
2023-02-16T01:52:55.991Z,96215.00
2023-02-16T01:53:05.937Z,96213.00
2023-02-16T01:53:15.931Z,96213.00
2023-02-16T01:53:25.940Z,96215.00
2023-02-16T01:53:35.942Z,96211.00
2023-02-16T01:53:45.941Z,96215.00
2023-02-16T01:53:55.962Z,96211.00
2023-02-16T01:54:05.947Z,96209.00
2023-02-16T01:54:15.939Z,96213.00
2023-02-16T01:54:25.939Z,96209.00
2023-02-16T01:54:35.936Z,96211.00
2023-02-16T01:54:45.950Z,96211.00
2023-02-16T01:54:55.936Z,96211.00
2023-02-16T01:55:05.948Z,96209.00
2023-02-16T01:55:15.932Z,96215.00
2023-02-16T01:55:25.973Z,96213.00
2023-02-16T01:55:35.955Z,96209.00
2023-02-16T01:55:45.938Z,96209.00
2023-02-16T01:55:55.945Z,96211.00
2023-02-16T01:56:05.944Z,96209.00
2023-02-16T01:56:15.936Z,96213.00
2023-02-16T01:56:25.929Z,96213.00
2023-02-16T01:56:35.949Z,96213.00
2023-02-16T01:56:45.940Z,96211.00
2023-02-16T01:56:55.912Z,96209.00
2023-02-16T01:57:05.936Z,96211.00
2023-02-16T01:57:15.902Z,96211.00
2023-02-16T01:57:25.941Z,96209.00
2023-02-16T01:57:35.951Z,96207.00
2023-02-16T01:57:45.933Z,96207.00